sensor_id;sensor_type;location;lat;lon;timestamp;pressure;altitude;pressure_sealevel;temperature;humidity
69982;BME280;57319;56.274;43.980;2023-02-13T00:00:39;99621.16;;;-6.12;77.40
69982;BME280;57319;56.274;43.980;2023-02-13T00:03:04;99612.72;;;-6.14;78.03
69982;BME280;57319;56.274;43.980;2023-02-13T00:05:30;99616.84;;;-6.15;78.08
69982;BME280;57319;56.274;43.980;2023-02-13T00:07:56;99619.63;;;-6.10;77.93
69982;BME280;57319;56.274;43.980;2023-02-13T00:10:21;99628.28;;;-6.03;78.03
69982;BME280;57319;56.274;43.980;2023-02-13T00:12:47;99618.88;;;-6.07;78.20
69982;BME280;57319;56.274;43.980;2023-02-13T00:15:13;99611.31;;;-6.09;77.55
69982;BME280;57319;56.274;43.980;2023-02-13T00:17:38;99615.47;;;-6.09;77.86
69982;BME280;57319;56.274;43.980;2023-02-13T00:20:04;99609.59;;;-6.10;78.05
69982;BME280;57319;56.274;43.980;2023-02-13T00:22:34;99611.06;;;-6.14;77.80
69982;BME280;57319;56.274;43.980;2023-02-13T00:25:00;99611.53;;;-6.21;77.84
69982;BME280;57319;56.274;43.980;2023-02-13T00:27:25;99612.16;;;-6.25;78.00
69982;BME280;57319;56.274;43.980;2023-02-13T00:29:51;99611.06;;;-6.30;78.02
69982;BME280;57319;56.274;43.980;2023-02-13T00:32:17;99609.59;;;-6.26;78.04
69982;BME280;57319;56.274;43.980;2023-02-13T00:34:42;99615.03;;;-6.34;77.70
69982;BME280;57319;56.274;43.980;2023-02-13T00:37:08;99607.78;;;-6.29;78.01
69982;BME280;57319;56.274;43.980;2023-02-13T00:39:34;99603.31;;;-6.35;77.76
69982;BME280;57319;56.274;43.980;2023-02-13T00:41:59;99604.72;;;-6.40;77.16
69982;BME280;57319;56.274;43.980;2023-02-13T00:44:25;99606.03;;;-6.46;77.47
69982;BME280;57319;56.274;43.980;2023-02-13T00:46:51;99609.16;;;-6.51;77.43
69982;BME280;57319;56.274;43.980;2023-02-13T00:49:16;99609.84;;;-6.53;77.62
69982;BME280;57319;56.274;43.980;2023-02-13T00:51:42;99603.19;;;-6.53;77.13
69982;BME280;57319;56.274;43.980;2023-02-13T00:54:07;99608.03;;;-6.56;77.23
69982;BME280;57319;56.274;43.980;2023-02-13T00:56:33;99605.13;;;-6.63;76.87
69982;BME280;57319;56.274;43.980;2023-02-13T00:58:58;99607.16;;;-6.73;76.61
69982;BME280;57319;56.274;43.980;2023-02-13T01:01:24;99599.97;;;-6.82;76.75
69982;BME280;57319;56.274;43.980;2023-02-13T01:03:50;99609.91;;;-6.83;77.12
69982;BME280;57319;56.274;43.980;2023-02-13T01:06:15;99607.16;;;-6.88;76.67
69982;BME280;57319;56.274;43.980;2023-02-13T01:08:41;99607.09;;;-6.89;76.79
69982;BME280;57319;56.274;43.980;2023-02-13T01:11:07;99608.63;;;-6.91;76.91
69982;BME280;57319;56.274;43.980;2023-02-13T01:13:32;99605.28;;;-6.92;76.73
69982;BME280;57319;56.274;43.980;2023-02-13T01:15:58;99602.69;;;-6.93;77.11
69982;BME280;57319;56.274;43.980;2023-02-13T01:18:24;99605.97;;;-6.94;76.90
69982;BME280;57319;56.274;43.980;2023-02-13T01:21:04;99601.13;;;-6.91;77.16
69982;BME280;57319;56.274;43.980;2023-02-13T01:23:35;99601.19;;;-6.90;77.04
69982;BME280;57319;56.274;43.980;2023-02-13T01:26:06;99604.53;;;-7.06;76.76
69982;BME280;57319;56.274;43.980;2023-02-13T01:28:32;99604.53;;;-7.06;77.06
69982;BME280;57319;56.274;43.980;2023-02-13T01:30:58;99602.13;;;-7.19;77.20
69982;BME280;57319;56.274;43.980;2023-02-13T01:33:25;99600.06;;;-7.26;77.36
69982;BME280;57319;56.274;43.980;2023-02-13T01:35:51;99606.59;;;-7.28;77.33
69982;BME280;57319;56.274;43.980;2023-02-13T01:38:17;99610.31;;;-7.37;77.54
69982;BME280;57319;56.274;43.980;2023-02-13T01:40:52;99607.03;;;-7.36;77.69
69982;BME280;57319;56.274;43.980;2023-02-13T01:43:18;99608.94;;;-7.46;77.28
69982;BME280;57319;56.274;43.980;2023-02-13T01:45:48;99603.06;;;-7.62;77.60
69982;BME280;57319;56.274;43.980;2023-02-13T01:48:18;99602.69;;;-7.68;77.61
69982;BME280;57319;56.274;43.980;2023-02-13T01:50:48;99607.69;;;-7.68;77.54
69982;BME280;57319;56.274;43.980;2023-02-13T01:53:26;99594.50;;;-7.80;77.60
69982;BME280;57319;56.274;43.980;2023-02-13T01:56:17;99601.88;;;-7.97;77.87
69982;BME280;57319;56.274;43.980;2023-02-13T01:58:48;99608.34;;;-8.01;78.08
69982;BME280;57319;56.274;43.980;2023-02-13T02:01:15;99604.16;;;-8.15;78.52
69982;BME280;57319;56.274;43.980;2023-02-13T02:06:22;99608.63;;;-8.24;78.24
69982;BME280;57319;56.274;43.980;2023-02-13T02:08:51;99607.38;;;-8.31;78.77
69982;BME280;57319;56.274;43.980;2023-02-13T02:11:30;99618.81;;;-8.35;78.95
69982;BME280;57319;56.274;43.980;2023-02-13T02:14:00;99613.72;;;-8.36;79.23
69982;BME280;57319;56.274;43.980;2023-02-13T02:16:46;99616.31;;;-8.35;79.42
69982;BME280;57319;56.274;43.980;2023-02-13T02:19:35;99606.31;;;-8.35;79.15
69982;BME280;57319;56.274;43.980;2023-02-13T02:27:45;99609.84;;;-8.46;79.51
69982;BME280;57319;56.274;43.980;2023-02-13T02:41:14;99586.00;;;-8.82;79.69
69982;BME280;57319;56.274;43.980;2023-02-13T02:44:31;99590.53;;;-8.90;79.76
69982;BME280;57319;56.274;43.980;2023-02-13T02:47:54;99594.53;;;-8.92;79.82
69982;BME280;57319;56.274;43.980;2023-02-13T02:50:39;99594.44;;;-8.94;79.79
69982;BME280;57319;56.274;43.980;2023-02-13T02:55:50;99590.78;;;-8.99;80.31
69982;BME280;57319;56.274;43.980;2023-02-13T02:58:24;99583.03;;;-9.04;80.15
69982;BME280;57319;56.274;43.980;2023-02-13T03:01:15;99580.72;;;-9.00;80.25
69982;BME280;57319;56.274;43.980;2023-02-13T03:04:00;99583.22;;;-9.00;80.31
69982;BME280;57319;56.274;43.980;2023-02-13T03:07:06;99579.88;;;-9.14;80.39
69982;BME280;57319;56.274;43.980;2023-02-13T03:09:36;99578.22;;;-9.14;80.94
69982;BME280;57319;56.274;43.980;2023-02-13T03:12:24;99575.56;;;-9.17;80.65
69982;BME280;57319;56.274;43.980;2023-02-13T03:15:12;99574.59;;;-9.19;80.39
69982;BME280;57319;56.274;43.980;2023-02-13T03:17:38;99566.34;;;-9.18;80.18
69982;BME280;57319;56.274;43.980;2023-02-13T03:20:45;99556.56;;;-9.28;80.55
69982;BME280;57319;56.274;43.980;2023-02-13T03:23:54;99553.97;;;-9.30;81.08
69982;BME280;57319;56.274;43.980;2023-02-13T03:26:37;99552.16;;;-9.32;80.40
69982;BME280;57319;56.274;43.980;2023-02-13T03:32:26;99553.88;;;-9.45;81.01
69982;BME280;57319;56.274;43.980;2023-02-13T03:38:24;99541.66;;;-9.53;81.42
69982;BME280;57319;56.274;43.980;2023-02-13T03:41:10;99543.31;;;-9.54;81.44
69982;BME280;57319;56.274;43.980;2023-02-13T03:44:52;99543.59;;;-9.49;81.60
69982;BME280;57319;56.274;43.980;2023-02-13T03:46:46;99542.25;;;-9.44;81.11
69982;BME280;57319;56.274;43.980;2023-02-13T03:49:25;99548.50;;;-9.38;81.12
69982;BME280;57319;56.274;43.980;2023-02-13T03:52:23;99542.09;;;-9.34;80.72
69982;BME280;57319;56.274;43.980;2023-02-13T03:57:39;99536.13;;;-9.49;80.33
69982;BME280;57319;56.274;43.980;2023-02-13T04:00:27;99544.56;;;-9.47;80.31
69982;BME280;57319;56.274;43.980;2023-02-13T04:03:07;99550.31;;;-9.48;80.77
69982;BME280;57319;56.274;43.980;2023-02-13T04:05:42;99557.50;;;-9.53;80.19
69982;BME280;57319;56.274;43.980;2023-02-13T04:08:09;99557.50;;;-9.53;80.29
69982;BME280;57319;56.274;43.980;2023-02-13T04:10:41;99563.16;;;-9.56;80.10
69982;BME280;57319;56.274;43.980;2023-02-13T04:13:19;99564.94;;;-9.66;80.33
69982;BME280;57319;56.274;43.980;2023-02-13T04:15:57;99567.44;;;-9.66;80.40
69982;BME280;57319;56.274;43.980;2023-02-13T04:18:30;99570.03;;;-9.65;80.62
69982;BME280;57319;56.274;43.980;2023-02-13T04:21:00;99557.84;;;-9.74;80.87
69982;BME280;57319;56.274;43.980;2023-02-13T04:23:26;99562.09;;;-9.73;80.98
69982;BME280;57319;56.274;43.980;2023-02-13T04:25:54;99561.66;;;-9.79;81.28
69982;BME280;57319;56.274;43.980;2023-02-13T04:28:21;99562.53;;;-9.78;80.94
69982;BME280;57319;56.274;43.980;2023-02-13T04:30:47;99559.47;;;-9.74;81.06
69982;BME280;57319;56.274;43.980;2023-02-13T04:33:14;99553.13;;;-9.82;80.72
69982;BME280;57319;56.274;43.980;2023-02-13T04:35:40;99551.19;;;-9.86;80.79
69982;BME280;57319;56.274;43.980;2023-02-13T04:38:06;99551.41;;;-9.83;80.63
69982;BME280;57319;56.274;43.980;2023-02-13T04:40:31;99543.94;;;-9.83;80.72
69982;BME280;57319;56.274;43.980;2023-02-13T04:42:57;99564.34;;;-9.89;80.11
69982;BME280;57319;56.274;43.980;2023-02-13T04:45:23;99564.66;;;-10.10;80.10
69982;BME280;57319;56.274;43.980;2023-02-13T04:47:53;99562.00;;;-10.25;80.16
69982;BME280;57319;56.274;43.980;2023-02-13T04:50:19;99567.59;;;-10.41;80.33
69982;BME280;57319;56.274;43.980;2023-02-13T04:52:45;99574.53;;;-10.48;80.98
69982;BME280;57319;56.274;43.980;2023-02-13T04:55:12;99572.84;;;-10.61;81.16
69982;BME280;57319;56.274;43.980;2023-02-13T04:57:38;99562.50;;;-10.67;81.32
69982;BME280;57319;56.274;43.980;2023-02-13T05:00:05;99562.16;;;-10.60;81.00
69982;BME280;57319;56.274;43.980;2023-02-13T05:02:31;99563.19;;;-10.57;80.26
69982;BME280;57319;56.274;43.980;2023-02-13T05:04:57;99567.31;;;-10.57;80.80
69982;BME280;57319;56.274;43.980;2023-02-13T05:07:22;99576.63;;;-10.54;80.76
69982;BME280;57319;56.274;43.980;2023-02-13T05:09:48;99567.44;;;-10.55;80.01
69982;BME280;57319;56.274;43.980;2023-02-13T05:12:13;99569.72;;;-10.70;80.04
69982;BME280;57319;56.274;43.980;2023-02-13T05:14:39;99566.19;;;-10.86;80.50
69982;BME280;57319;56.274;43.980;2023-02-13T05:17:05;99556.78;;;-10.90;80.19
69982;BME280;57319;56.274;43.980;2023-02-13T05:19:30;99577.00;;;-10.85;80.36
69982;BME280;57319;56.274;43.980;2023-02-13T05:21:56;99567.28;;;-10.82;80.46
69982;BME280;57319;56.274;43.980;2023-02-13T05:24:40;99573.22;;;-10.80;80.05
69982;BME280;57319;56.274;43.980;2023-02-13T05:27:05;99564.25;;;-10.78;79.21
69982;BME280;57319;56.274;43.980;2023-02-13T05:29:31;99568.69;;;-10.74;79.00
69982;BME280;57319;56.274;43.980;2023-02-13T05:31:57;99562.91;;;-10.73;78.79
69982;BME280;57319;56.274;43.980;2023-02-13T05:34:26;99554.81;;;-10.70;78.79
69982;BME280;57319;56.274;43.980;2023-02-13T05:36:52;99556.00;;;-10.77;78.07
69982;BME280;57319;56.274;43.980;2023-02-13T05:39:18;99551.28;;;-10.86;78.63
69982;BME280;57319;56.274;43.980;2023-02-13T05:41:45;99546.59;;;-10.81;78.64
69982;BME280;57319;56.274;43.980;2023-02-13T05:44:12;99542.91;;;-10.75;78.38
69982;BME280;57319;56.274;43.980;2023-02-13T05:46:39;99548.53;;;-10.65;78.87
69982;BME280;57319;56.274;43.980;2023-02-13T05:49:06;99542.91;;;-10.63;78.48
69982;BME280;57319;56.274;43.980;2023-02-13T05:51:31;99532.09;;;-10.63;78.25
69982;BME280;57319;56.274;43.980;2023-02-13T05:53:57;99535.81;;;-10.45;78.27
69982;BME280;57319;56.274;43.980;2023-02-13T05:56:23;99530.47;;;-10.37;78.51
69982;BME280;57319;56.274;43.980;2023-02-13T05:58:52;99536.75;;;-10.17;77.89
69982;BME280;57319;56.274;43.980;2023-02-13T06:01:19;99534.50;;;-10.01;77.73
69982;BME280;57319;56.274;43.980;2023-02-13T06:03:44;99540.22;;;-9.77;77.55
69982;BME280;57319;56.274;43.980;2023-02-13T06:06:10;99543.28;;;-9.67;77.26
69982;BME280;57319;56.274;43.980;2023-02-13T06:08:35;99534.94;;;-9.81;76.67
69982;BME280;57319;56.274;43.980;2023-02-13T06:11:02;99545.56;;;-9.84;77.17
69982;BME280;57319;56.274;43.980;2023-02-13T06:13:27;99549.31;;;-9.77;77.35
69982;BME280;57319;56.274;43.980;2023-02-13T06:15:53;99529.22;;;-9.67;77.09
69982;BME280;57319;56.274;43.980;2023-02-13T06:18:19;99537.38;;;-9.43;76.60
69982;BME280;57319;56.274;43.980;2023-02-13T06:20:44;99539.69;;;-9.32;76.39
69982;BME280;57319;56.274;43.980;2023-02-13T06:23:10;99534.81;;;-9.17;76.22
69982;BME280;57319;56.274;43.980;2023-02-13T06:25:36;99532.84;;;-9.08;75.13
69982;BME280;57319;56.274;43.980;2023-02-13T06:28:02;99535.97;;;-9.26;74.25
69982;BME280;57319;56.274;43.980;2023-02-13T06:30:28;99532.38;;;-9.43;74.67
69982;BME280;57319;56.274;43.980;2023-02-13T06:32:54;99529.72;;;-9.46;74.47
69982;BME280;57319;56.274;43.980;2023-02-13T06:35:20;99523.72;;;-9.75;74.47
69982;BME280;57319;56.274;43.980;2023-02-13T06:37:46;99516.09;;;-9.64;75.10
69982;BME280;57319;56.274;43.980;2023-02-13T06:40:14;99508.31;;;-9.69;75.10
69982;BME280;57319;56.274;43.980;2023-02-13T06:42:44;99505.75;;;-9.57;75.03
69982;BME280;57319;56.274;43.980;2023-02-13T06:45:11;99508.50;;;-9.52;75.17
69982;BME280;57319;56.274;43.980;2023-02-13T06:47:41;99491.97;;;-9.52;75.53
69982;BME280;57319;56.274;43.980;2023-02-13T06:50:07;99500.84;;;-9.56;75.21
69982;BME280;57319;56.274;43.980;2023-02-13T06:52:33;99497.59;;;-9.55;76.20
69982;BME280;57319;56.274;43.980;2023-02-13T06:55:00;99502.00;;;-9.50;76.12
69982;BME280;57319;56.274;43.980;2023-02-13T06:57:26;99495.97;;;-9.41;75.88
69982;BME280;57319;56.274;43.980;2023-02-13T06:59:51;99492.91;;;-9.36;75.55
69982;BME280;57319;56.274;43.980;2023-02-13T07:02:17;99488.69;;;-9.38;75.41
69982;BME280;57319;56.274;43.980;2023-02-13T07:04:42;99482.25;;;-9.34;75.10
69982;BME280;57319;56.274;43.980;2023-02-13T07:07:08;99490.00;;;-9.29;75.07
69982;BME280;57319;56.274;43.980;2023-02-13T07:09:34;99475.16;;;-9.28;74.83
69982;BME280;57319;56.274;43.980;2023-02-13T07:12:04;99472.25;;;-9.21;74.28
69982;BME280;57319;56.274;43.980;2023-02-13T07:14:30;99473.41;;;-9.29;73.97
69982;BME280;57319;56.274;43.980;2023-02-13T07:16:56;99471.13;;;-9.26;74.27
69982;BME280;57319;56.274;43.980;2023-02-13T07:19:21;99467.28;;;-9.21;74.50
69982;BME280;57319;56.274;43.980;2023-02-13T07:21:47;99462.75;;;-9.13;74.40
69982;BME280;57319;56.274;43.980;2023-02-13T07:24:12;99465.75;;;-9.18;73.24
69982;BME280;57319;56.274;43.980;2023-02-13T07:26:38;99472.06;;;-9.10;73.57
69982;BME280;57319;56.274;43.980;2023-02-13T07:29:04;99467.56;;;-9.02;73.58
69982;BME280;57319;56.274;43.980;2023-02-13T07:31:33;99465.69;;;-8.92;73.41
69982;BME280;57319;56.274;43.980;2023-02-13T07:33:59;99469.41;;;-8.85;72.99
69982;BME280;57319;56.274;43.980;2023-02-13T07:36:26;99474.31;;;-8.87;72.92
69982;BME280;57319;56.274;43.980;2023-02-13T07:38:51;99477.09;;;-8.82;72.76
69982;BME280;57319;56.274;43.980;2023-02-13T07:41:18;99472.69;;;-8.86;72.68
69982;BME280;57319;56.274;43.980;2023-02-13T07:43:44;99476.31;;;-8.81;72.85
69982;BME280;57319;56.274;43.980;2023-02-13T07:46:10;99469.22;;;-8.88;73.49
69982;BME280;57319;56.274;43.980;2023-02-13T07:48:35;99476.44;;;-8.93;73.21
69982;BME280;57319;56.274;43.980;2023-02-13T07:51:03;99469.56;;;-8.97;73.35
69982;BME280;57319;56.274;43.980;2023-02-13T07:53:29;99465.72;;;-9.05;72.79
69982;BME280;57319;56.274;43.980;2023-02-13T07:55:55;99464.75;;;-8.94;73.23
69982;BME280;57319;56.274;43.980;2023-02-13T07:58:20;99460.09;;;-8.88;73.50
69982;BME280;57319;56.274;43.980;2023-02-13T08:00:46;99457.22;;;-8.80;73.08
69982;BME280;57319;56.274;43.980;2023-02-13T08:03:12;99450.25;;;-8.71;72.71
69982;BME280;57319;56.274;43.980;2023-02-13T08:05:37;99449.06;;;-8.63;72.84
69982;BME280;57319;56.274;43.980;2023-02-13T08:08:04;99449.53;;;-8.55;72.71
69982;BME280;57319;56.274;43.980;2023-02-13T08:10:29;99439.03;;;-8.35;72.30
69982;BME280;57319;56.274;43.980;2023-02-13T08:13:14;99435.53;;;-8.08;72.16
69982;BME280;57319;56.274;43.980;2023-02-13T08:15:41;99431.28;;;-7.94;71.63
69982;BME280;57319;56.274;43.980;2023-02-13T08:18:09;99438.97;;;-8.06;71.49
69982;BME280;57319;56.274;43.980;2023-02-13T08:20:35;99429.69;;;-8.09;71.43
69982;BME280;57319;56.274;43.980;2023-02-13T08:23:02;99421.81;;;-8.00;71.78
69982;BME280;57319;56.274;43.980;2023-02-13T08:25:28;99422.72;;;-7.99;72.13
69982;BME280;57319;56.274;43.980;2023-02-13T08:27:54;99409.59;;;-7.95;71.80
69982;BME280;57319;56.274;43.980;2023-02-13T08:30:19;99397.28;;;-8.07;72.16
69982;BME280;57319;56.274;43.980;2023-02-13T08:32:45;99395.38;;;-7.96;72.39
69982;BME280;57319;56.274;43.980;2023-02-13T08:35:11;99412.19;;;-7.94;72.31
69982;BME280;57319;56.274;43.980;2023-02-13T08:37:36;99396.31;;;-7.79;72.75
69982;BME280;57319;56.274;43.980;2023-02-13T08:40:02;99377.84;;;-7.67;72.06
69982;BME280;57319;56.274;43.980;2023-02-13T08:42:29;99378.59;;;-7.53;72.03
69982;BME280;57319;56.274;43.980;2023-02-13T08:44:55;99378.66;;;-7.51;71.72
69982;BME280;57319;56.274;43.980;2023-02-13T08:47:20;99378.09;;;-7.62;71.53
69982;BME280;57319;56.274;43.980;2023-02-13T08:49:46;99371.03;;;-7.69;71.98
69982;BME280;57319;56.274;43.980;2023-02-13T08:52:12;99368.63;;;-7.68;71.87
69982;BME280;57319;56.274;43.980;2023-02-13T08:54:37;99364.25;;;-7.72;71.69
69982;BME280;57319;56.274;43.980;2023-02-13T08:57:03;99355.72;;;-7.90;72.06
69982;BME280;57319;56.274;43.980;2023-02-13T08:59:28;99343.31;;;-7.89;72.18
69982;BME280;57319;56.274;43.980;2023-02-13T09:01:55;99343.44;;;-7.87;73.19
69982;BME280;57319;56.274;43.980;2023-02-13T09:04:21;99334.94;;;-7.74;72.90
69982;BME280;57319;56.274;43.980;2023-02-13T09:06:47;99338.94;;;-7.61;72.71
69982;BME280;57319;56.274;43.980;2023-02-13T09:09:12;99340.00;;;-7.41;72.07
69982;BME280;57319;56.274;43.980;2023-02-13T09:11:38;99318.91;;;-7.30;71.40
69982;BME280;57319;56.274;43.980;2023-02-13T09:14:04;99317.97;;;-7.16;71.02
69982;BME280;57319;56.274;43.980;2023-02-13T09:16:29;99328.13;;;-6.96;70.65
69982;BME280;57319;56.274;43.980;2023-02-13T09:18:55;99334.78;;;-7.13;70.89
69982;BME280;57319;56.274;43.980;2023-02-13T09:21:21;99313.06;;;-7.30;71.05
69982;BME280;57319;56.274;43.980;2023-02-13T09:23:48;99304.31;;;-7.22;71.34
69982;BME280;57319;56.274;43.980;2023-02-13T09:26:15;99310.13;;;-7.05;71.04
69982;BME280;57319;56.274;43.980;2023-02-13T09:28:42;99309.94;;;-7.10;71.17
69982;BME280;57319;56.274;43.980;2023-02-13T09:31:13;99305.16;;;-7.22;71.35
69982;BME280;57319;56.274;43.980;2023-02-13T09:33:40;99311.19;;;-7.18;71.15
69982;BME280;57319;56.274;43.980;2023-02-13T09:36:07;99305.78;;;-7.09;70.95
69982;BME280;57319;56.274;43.980;2023-02-13T09:38:33;99308.22;;;-6.76;70.41
69982;BME280;57319;56.274;43.980;2023-02-13T09:41:06;99301.50;;;-6.43;69.87
69982;BME280;57319;56.274;43.980;2023-02-13T09:43:38;99291.19;;;-6.13;68.99
69982;BME280;57319;56.274;43.980;2023-02-13T09:46:11;99283.75;;;-6.11;68.06
69982;BME280;57319;56.274;43.980;2023-02-13T09:48:41;99278.44;;;-6.00;67.80
69982;BME280;57319;56.274;43.980;2023-02-13T09:51:13;99275.88;;;-5.82;67.79
69982;BME280;57319;56.274;43.980;2023-02-13T09:53:40;99264.34;;;-5.98;67.55
69982;BME280;57319;56.274;43.980;2023-02-13T09:56:22;99263.50;;;-5.97;67.62
69982;BME280;57319;56.274;43.980;2023-02-13T10:01:55;99257.78;;;-6.14;67.90
69982;BME280;57319;56.274;43.980;2023-02-13T10:07:39;99247.25;;;-6.24;68.43
69982;BME280;57319;56.274;43.980;2023-02-13T10:16:14;99234.44;;;-5.93;67.57
69982;BME280;57319;56.274;43.980;2023-02-13T10:18:46;99227.00;;;-5.72;67.56
69982;BME280;57319;56.274;43.980;2023-02-13T10:21:13;99221.91;;;-5.73;67.25
69982;BME280;57319;56.274;43.980;2023-02-13T10:23:47;99221.00;;;-5.75;67.48
69982;BME280;57319;56.274;43.980;2023-02-13T10:26:23;99201.41;;;-5.84;66.48
69982;BME280;57319;56.274;43.980;2023-02-13T10:32:00;99216.06;;;-5.74;66.32
69982;BME280;57319;56.274;43.980;2023-02-13T10:34:31;99210.94;;;-5.77;66.22
69982;BME280;57319;56.274;43.980;2023-02-13T10:36:59;99211.91;;;-5.73;67.25
69982;BME280;57319;56.274;43.980;2023-02-13T10:39:27;99200.09;;;-5.76;67.14
69982;BME280;57319;56.274;43.980;2023-02-13T10:44:50;99193.38;;;-5.77;66.70
69982;BME280;57319;56.274;43.980;2023-02-13T10:47:38;99189.63;;;-5.67;66.53
69982;BME280;57319;56.274;43.980;2023-02-13T10:50:22;99173.38;;;-5.56;66.65
69982;BME280;57319;56.274;43.980;2023-02-13T10:58:51;99176.28;;;-5.47;66.03
69982;BME280;57319;56.274;43.980;2023-02-13T11:01:55;99157.78;;;-5.49;65.62
69982;BME280;57319;56.274;43.980;2023-02-13T11:04:21;99164.03;;;-5.39;66.29
69982;BME280;57319;56.274;43.980;2023-02-13T11:06:59;99152.56;;;-5.53;65.21
69982;BME280;57319;56.274;43.980;2023-02-13T11:09:25;99160.56;;;-5.42;65.48
69982;BME280;57319;56.274;43.980;2023-02-13T11:11:51;99156.50;;;-5.39;65.23
69982;BME280;57319;56.274;43.980;2023-02-13T11:14:22;99147.28;;;-5.40;65.57
69982;BME280;57319;56.274;43.980;2023-02-13T11:21:58;99134.41;;;-5.07;65.16
69982;BME280;57319;56.274;43.980;2023-02-13T11:24:26;99140.47;;;-5.00;64.88
69982;BME280;57319;56.274;43.980;2023-02-13T11:26:58;99137.63;;;-5.09;63.99
69982;BME280;57319;56.274;43.980;2023-02-13T11:29:27;99119.34;;;-5.07;64.66
69982;BME280;57319;56.274;43.980;2023-02-13T11:34:39;99113.38;;;-5.09;65.20
69982;BME280;57319;56.274;43.980;2023-02-13T11:37:25;99110.25;;;-5.03;65.25
69982;BME280;57319;56.274;43.980;2023-02-13T11:39:53;99108.94;;;-4.94;64.81
69982;BME280;57319;56.274;43.980;2023-02-13T11:42:34;99103.13;;;-4.92;64.64
69982;BME280;57319;56.274;43.980;2023-02-13T11:45:04;99104.28;;;-5.07;63.72
69982;BME280;57319;56.274;43.980;2023-02-13T11:47:39;99095.69;;;-5.12;64.21
69982;BME280;57319;56.274;43.980;2023-02-13T11:50:25;99095.69;;;-5.12;64.43
69982;BME280;57319;56.274;43.980;2023-02-13T11:53:04;99099.25;;;-5.07;65.38
69982;BME280;57319;56.274;43.980;2023-02-13T11:55:38;99093.34;;;-5.07;65.61
69982;BME280;57319;56.274;43.980;2023-02-13T12:00:38;99095.09;;;-5.28;65.58
69982;BME280;57319;56.274;43.980;2023-02-13T12:08:34;99081.69;;;-5.28;66.10
69982;BME280;57319;56.274;43.980;2023-02-13T12:11:02;99077.09;;;-5.17;65.85
69982;BME280;57319;56.274;43.980;2023-02-13T12:13:36;99080.59;;;-5.14;65.89
69982;BME280;57319;56.274;43.980;2023-02-13T12:16:11;99075.00;;;-5.06;65.88
69982;BME280;57319;56.274;43.980;2023-02-13T12:18:43;99070.44;;;-4.94;65.77
69982;BME280;57319;56.274;43.980;2023-02-13T12:21:27;99057.59;;;-5.02;64.79
69982;BME280;57319;56.274;43.980;2023-02-13T12:26:51;99062.25;;;-4.90;63.61
69982;BME280;57319;56.274;43.980;2023-02-13T12:29:45;99058.19;;;-4.86;64.19
69982;BME280;57319;56.274;43.980;2023-02-13T12:35:34;99062.66;;;-4.79;63.57
69982;BME280;57319;56.274;43.980;2023-02-13T12:46:28;99044.78;;;-4.87;64.62
69982;BME280;57319;56.274;43.980;2023-02-13T13:07:56;99026.94;;;-4.95;64.41
69982;BME280;57319;56.274;43.980;2023-02-13T13:13:32;99030.91;;;-5.00;64.74
69982;BME280;57319;56.274;43.980;2023-02-13T13:16:46;99027.22;;;-5.09;64.63
69982;BME280;57319;56.274;43.980;2023-02-13T13:21:40;99024.91;;;-5.03;66.23
69982;BME280;57319;56.274;43.980;2023-02-13T13:24:58;99025.03;;;-5.00;66.26
69982;BME280;57319;56.274;43.980;2023-02-13T13:27:01;99026.78;;;-4.98;66.41
69982;BME280;57319;56.274;43.980;2023-02-13T13:29:42;99018.38;;;-5.00;65.84
69982;BME280;57319;56.274;43.980;2023-02-13T13:32:16;99025.91;;;-5.00;66.34
69982;BME280;57319;56.274;43.980;2023-02-13T13:34:43;99014.88;;;-5.03;65.93
69982;BME280;57319;56.274;43.980;2023-02-13T13:44:59;99015.44;;;-5.11;65.41
69982;BME280;57319;56.274;43.980;2023-02-13T13:50:05;98999.47;;;-5.13;65.90
69982;BME280;57319;56.274;43.980;2023-02-13T13:53:22;99003.00;;;-5.07;66.54
69982;BME280;57319;56.274;43.980;2023-02-13T13:58:38;98999.75;;;-5.05;65.84
69982;BME280;57319;56.274;43.980;2023-02-13T14:01:20;98995.44;;;-5.09;65.89
69982;BME280;57319;56.274;43.980;2023-02-13T14:03:50;98987.78;;;-5.12;66.38
69982;BME280;57319;56.274;43.980;2023-02-13T14:06:18;98987.53;;;-5.18;65.36
69982;BME280;57319;56.274;43.980;2023-02-13T14:11:38;98971.22;;;-5.30;66.57
69982;BME280;57319;56.274;43.980;2023-02-13T14:16:52;98957.59;;;-5.36;67.26
69982;BME280;57319;56.274;43.980;2023-02-13T14:19:28;98949.97;;;-5.39;67.23
69982;BME280;57319;56.274;43.980;2023-02-13T14:25:25;98939.09;;;-5.40;67.01
69982;BME280;57319;56.274;43.980;2023-02-13T14:27:57;98928.59;;;-5.30;67.62
69982;BME280;57319;56.274;43.980;2023-02-13T14:30:35;98931.38;;;-5.22;67.35
69982;BME280;57319;56.274;43.980;2023-02-13T14:33:05;98932.53;;;-5.14;67.30
69982;BME280;57319;56.274;43.980;2023-02-13T14:35:34;98934.47;;;-5.06;67.33
69982;BME280;57319;56.274;43.980;2023-02-13T14:38:06;98941.44;;;-4.98;67.25
69982;BME280;57319;56.274;43.980;2023-02-13T14:40:51;98934.66;;;-5.00;66.62
69982;BME280;57319;56.274;43.980;2023-02-13T14:43:32;98945.63;;;-4.98;66.68
69982;BME280;57319;56.274;43.980;2023-02-13T14:46:05;98942.13;;;-5.02;67.52
69982;BME280;57319;56.274;43.980;2023-02-13T14:48:36;98926.69;;;-5.13;67.90
69982;BME280;57319;56.274;43.980;2023-02-13T14:51:04;98925.69;;;-5.18;68.50
69982;BME280;57319;56.274;43.980;2023-02-13T14:53:51;98935.53;;;-5.22;68.60
69982;BME280;57319;56.274;43.980;2023-02-13T14:56:20;98919.47;;;-5.28;69.01
69982;BME280;57319;56.274;43.980;2023-02-13T14:59:21;98919.47;;;-5.28;69.03
69982;BME280;57319;56.274;43.980;2023-02-13T15:01:59;98921.69;;;-5.35;69.05
69982;BME280;57319;56.274;43.980;2023-02-13T15:04:30;98904.91;;;-5.36;69.58
69982;BME280;57319;56.274;43.980;2023-02-13T15:07:01;98904.28;;;-5.31;69.79
69982;BME280;57319;56.274;43.980;2023-02-13T15:09:33;98893.41;;;-5.31;68.55
69982;BME280;57319;56.274;43.980;2023-02-13T15:12:00;98898.03;;;-5.42;69.24
69982;BME280;57319;56.274;43.980;2023-02-13T15:14:32;98897.81;;;-5.48;69.30
69982;BME280;57319;56.274;43.980;2023-02-13T15:20:29;98885.41;;;-5.66;70.29
69982;BME280;57319;56.274;43.980;2023-02-13T15:22:53;98892.09;;;-5.67;70.02